createdAt,value
2022-12-18T00:01:14.757Z,58.20
2022-12-18T00:03:41.935Z,60.60
2022-12-18T00:06:11.100Z,63.15
2022-12-18T00:11:07.041Z,59.47
2022-12-18T00:13:34.052Z,59.67
2022-12-18T00:16:05.178Z,58.85
2022-12-18T00:18:32.358Z,57.13
2022-12-18T00:21:07.913Z,59.83
2022-12-18T00:23:36.725Z,62.95
2022-12-18T00:26:06.748Z,60.70
2022-12-18T00:28:33.581Z,57.67
2022-12-18T00:31:08.871Z,59.90
2022-12-18T00:33:36.698Z,60.55
2022-12-18T00:36:08.993Z,57.23
2022-12-18T00:38:36.387Z,58.90
2022-12-18T00:41:03.790Z,55.95
2022-12-18T00:43:30.429Z,61.05
2022-12-18T00:45:57.142Z,58.72
2022-12-18T00:48:24.026Z,55.65
2022-12-18T00:50:51.265Z,58.45
2022-12-18T00:53:18.651Z,58.28
2022-12-18T00:55:46.096Z,58.15
2022-12-18T00:58:14.492Z,56.97
2022-12-18T01:00:41.839Z,60.88
2022-12-18T01:03:08.856Z,62.78
2022-12-18T01:05:35.563Z,65.18
2022-12-18T01:08:02.268Z,69.15
2022-12-18T01:10:28.960Z,62.28
2022-12-18T01:12:56.376Z,63.90
2022-12-18T01:15:23.031Z,62.42
2022-12-18T01:17:49.676Z,63.15
2022-12-18T01:20:16.680Z,64.13
2022-12-18T01:22:43.332Z,77.47
2022-12-18T01:25:10.144Z,63.45
2022-12-18T01:27:36.961Z,87.32
2022-12-18T01:30:04.060Z,76.00
2022-12-18T01:32:32.469Z,65.80
2022-12-18T01:34:59.466Z,64.90
2022-12-18T01:37:26.092Z,65.50
2022-12-18T01:39:55.214Z,66.88
2022-12-18T01:42:22.890Z,70.50
2022-12-18T01:44:58.329Z,70.13
2022-12-18T01:47:27.946Z,66.38
2022-12-18T01:49:56.116Z,62.83
2022-12-18T01:52:24.898Z,61.67
2022-12-18T01:54:52.633Z,66.60
2022-12-18T01:57:19.892Z,64.80
2022-12-18T01:59:51.705Z,55.92
2022-12-18T02:02:19.852Z,62.70
2022-12-18T02:04:49.620Z,69.70
2022-12-18T02:07:53.745Z,59.75
2022-12-18T02:10:43.881Z,57.20
2022-12-18T02:13:46.079Z,59.88
2022-12-18T02:16:22.041Z,55.83
2022-12-18T02:18:52.429Z,56.35
2022-12-18T02:21:35.948Z,59.53
2022-12-18T02:24:14.934Z,57.67
2022-12-18T02:26:50.408Z,56.38
2022-12-18T02:29:45.091Z,58.15
2022-12-18T02:32:18.762Z,53.53
2022-12-18T02:34:47.177Z,54.42
2022-12-18T02:37:17.144Z,53.25
2022-12-18T02:39:47.024Z,52.28
2022-12-18T02:42:14.011Z,52.75
2022-12-18T02:44:50.249Z,50.88
2022-12-18T02:47:20.250Z,55.83
2022-12-18T02:49:49.931Z,54.92
2022-12-18T02:52:25.899Z,54.50
2022-12-18T02:55:19.336Z,56.53
2022-12-18T02:57:56.222Z,56.53
2022-12-18T03:00:29.659Z,51.92
2022-12-18T03:03:07.983Z,50.53
2022-12-18T03:05:44.362Z,54.88
2022-12-18T03:08:20.264Z,60.72
2022-12-18T03:10:52.277Z,55.38
2022-12-18T03:13:29.160Z,53.88
2022-12-18T03:15:59.382Z,52.10
2022-12-18T03:18:42.060Z,48.95
2022-12-18T03:21:11.779Z,51.40
2022-12-18T03:23:43.742Z,48.33
2022-12-18T03:26:15.641Z,54.45
2022-12-18T03:28:57.537Z,48.15
2022-12-18T03:31:27.284Z,50.92
2022-12-18T03:34:04.262Z,53.90
2022-12-18T03:36:30.893Z,50.90
2022-12-18T03:38:57.573Z,47.00
2022-12-18T03:41:34.202Z,52.28
2022-12-18T03:44:27.735Z,51.70
2022-12-18T03:47:31.360Z,49.90
2022-12-18T03:50:17.660Z,55.20
2022-12-18T03:53:22.825Z,55.95
2022-12-18T03:55:51.446Z,49.60
2022-12-18T03:58:21.674Z,49.50
2022-12-18T04:00:50.492Z,47.65
2022-12-18T04:05:55.107Z,50.00
2022-12-18T04:08:23.290Z,45.47
2022-12-18T04:10:50.002Z,46.88
2022-12-18T04:13:24.561Z,44.10
2022-12-18T04:15:51.331Z,46.20
2022-12-18T04:18:18.037Z,43.13
2022-12-18T04:20:44.688Z,41.15
2022-12-18T04:23:11.310Z,41.35
2022-12-18T04:25:37.976Z,35.33
2022-12-18T04:28:04.739Z,43.35
2022-12-18T04:30:31.387Z,39.97
2022-12-18T04:32:58.076Z,36.88
2022-12-18T04:35:24.707Z,42.90
2022-12-18T04:37:51.336Z,38.33
2022-12-18T04:40:18.116Z,31.92
2022-12-18T04:42:44.919Z,36.17
2022-12-18T04:45:11.719Z,33.40
2022-12-18T04:47:38.330Z,34.53
2022-12-18T04:50:05.533Z,33.50
2022-12-18T04:52:32.746Z,34.25
2022-12-18T04:54:59.398Z,33.20
2022-12-18T04:57:26.042Z,29.90
2022-12-18T04:59:52.786Z,29.50
2022-12-18T05:02:19.551Z,29.85
2022-12-18T05:04:46.270Z,26.30
2022-12-18T05:07:12.905Z,27.48
2022-12-18T05:09:39.584Z,29.35
2022-12-18T05:12:06.432Z,27.48
2022-12-18T05:14:33.046Z,25.88
2022-12-18T05:17:01.203Z,24.60
2022-12-18T05:19:28.099Z,26.48
2022-12-18T05:21:54.848Z,25.00
2022-12-18T05:24:21.574Z,25.05
2022-12-18T05:26:48.218Z,24.83
2022-12-18T05:29:14.971Z,22.70
2022-12-18T05:31:41.757Z,25.00
2022-12-18T05:34:09.798Z,23.92
2022-12-18T05:36:37.831Z,22.58
2022-12-18T05:39:04.787Z,25.80
2022-12-18T05:41:32.716Z,22.48
2022-12-18T05:43:59.694Z,22.65
2022-12-18T05:46:26.867Z,21.48
2022-12-18T05:48:53.601Z,23.90
2022-12-18T05:51:22.835Z,21.90
2022-12-18T05:53:49.516Z,23.20
2022-12-18T05:56:22.731Z,22.40
2022-12-18T05:58:52.769Z,21.58
2022-12-18T06:01:22.650Z,21.17
2022-12-18T06:03:50.468Z,22.40
2022-12-18T06:06:25.802Z,22.10
2022-12-18T06:08:53.331Z,22.08
2022-12-18T06:11:23.470Z,21.13
2022-12-18T06:13:57.946Z,21.00
2022-12-18T06:16:25.797Z,21.58
2022-12-18T06:18:52.587Z,22.95
2022-12-18T06:21:19.746Z,22.88
2022-12-18T06:23:46.376Z,23.10
2022-12-18T06:26:13.850Z,24.15
2022-12-18T06:28:40.503Z,22.83
2022-12-18T06:31:07.713Z,23.25
2022-12-18T06:33:35.008Z,22.33
2022-12-18T06:36:06.543Z,23.52
2022-12-18T06:38:34.635Z,23.20
2022-12-18T06:41:01.333Z,24.60
2022-12-18T06:43:27.949Z,22.58
2022-12-18T06:46:01.970Z,23.55
2022-12-18T06:48:28.689Z,23.98
2022-12-18T06:50:55.492Z,24.23
2022-12-18T06:53:22.335Z,21.60
2022-12-18T06:55:49.388Z,21.73
2022-12-18T06:58:16.471Z,22.48
2022-12-18T07:00:43.178Z,23.45
2022-12-18T07:03:11.602Z,23.67
2022-12-18T07:05:42.250Z,21.30
2022-12-18T07:08:09.004Z,21.27
2022-12-18T07:10:48.251Z,22.30
2022-12-18T07:13:17.172Z,21.35
2022-12-18T07:15:44.884Z,20.55
2022-12-18T07:18:12.136Z,21.35
2022-12-18T07:20:39.048Z,22.10
2022-12-18T07:23:06.193Z,20.67
2022-12-18T07:25:36.755Z,20.55
2022-12-18T07:28:04.237Z,21.83
2022-12-18T07:30:30.891Z,20.52
2022-12-18T07:32:57.660Z,19.92
2022-12-18T07:35:25.439Z,20.35
2022-12-18T07:37:52.260Z,20.45
2022-12-18T07:40:18.889Z,20.90
2022-12-18T07:42:45.492Z,20.98
2022-12-18T07:45:12.305Z,22.10
2022-12-18T07:47:38.969Z,19.90
2022-12-18T07:50:06.698Z,22.52
2022-12-18T07:52:33.512Z,20.60
2022-12-18T07:55:00.854Z,21.33
2022-12-18T08:00:17.468Z,20.33
2022-12-18T08:02:44.575Z,21.60
2022-12-18T08:05:11.263Z,20.55
2022-12-18T08:07:38.009Z,21.83
2022-12-18T08:10:05.135Z,20.95
2022-12-18T08:12:33.237Z,20.50
2022-12-18T08:14:59.971Z,23.85
2022-12-18T08:17:26.636Z,21.33
2022-12-18T08:19:53.343Z,21.92
2022-12-18T08:22:22.263Z,21.48
2022-12-18T08:27:30.962Z,21.73
2022-12-18T08:29:58.635Z,22.83
2022-12-18T08:32:27.545Z,20.85
2022-12-18T08:37:20.946Z,21.15
2022-12-18T08:39:47.674Z,21.27
2022-12-18T08:42:33.316Z,21.92
2022-12-18T08:45:00.047Z,19.85
2022-12-18T08:47:27.089Z,21.15
2022-12-18T08:49:53.904Z,22.67
2022-12-18T08:52:20.524Z,20.27
2022-12-18T08:54:47.251Z,20.85
2022-12-18T08:57:13.952Z,22.67
2022-12-18T08:59:40.605Z,22.00
2022-12-18T09:02:07.537Z,21.15
2022-12-18T09:04:34.438Z,20.20
2022-12-18T09:07:01.376Z,19.95
2022-12-18T09:09:28.057Z,21.92
2022-12-18T09:11:54.696Z,23.33
2022-12-18T09:14:21.356Z,21.65
2022-12-18T09:16:48.201Z,20.45
2022-12-18T09:19:14.878Z,19.67
2022-12-18T09:21:47.525Z,19.52
2022-12-18T09:24:15.639Z,20.60
2022-12-18T09:26:42.631Z,18.80
2022-12-18T09:29:10.543Z,19.50
2022-12-18T09:31:39.031Z,20.15
2022-12-18T09:34:06.997Z,20.05
2022-12-18T09:36:33.979Z,19.77
2022-12-18T09:39:05.005Z,21.55
2022-12-18T09:41:43.231Z,19.15
2022-12-18T09:44:45.347Z,19.20
2022-12-18T09:47:29.607Z,18.38
2022-12-18T09:50:04.790Z,18.58
2022-12-18T09:52:36.747Z,19.38
2022-12-18T09:55:11.725Z,17.60
2022-12-18T09:57:46.242Z,18.50
2022-12-18T10:00:24.342Z,17.88
2022-12-18T10:03:04.362Z,17.88
2022-12-18T10:05:46.131Z,18.77
2022-12-18T10:08:25.897Z,18.50
2022-12-18T10:10:58.029Z,19.33
2022-12-18T10:13:47.873Z,18.33
2022-12-18T10:16:20.400Z,17.85
2022-12-18T10:19:05.574Z,18.75
2022-12-18T10:21:58.373Z,16.90
2022-12-18T10:24:34.940Z,16.83
2022-12-18T10:27:14.829Z,17.90
2022-12-18T10:29:43.806Z,16.40
2022-12-18T10:34:41.909Z,14.05
2022-12-18T10:37:17.733Z,16.92
2022-12-18T10:39:45.047Z,15.48
2022-12-18T10:42:19.818Z,15.52
2022-12-18T10:44:46.899Z,15.88
2022-12-18T10:47:19.168Z,14.63
2022-12-18T10:49:53.713Z,16.05
2022-12-18T10:52:23.396Z,16.13
2022-12-18T10:54:56.488Z,14.75
2022-12-18T10:57:35.219Z,14.88
2022-12-18T11:02:47.608Z,14.52
2022-12-18T11:05:30.970Z,15.27
2022-12-18T11:07:58.909Z,13.82
2022-12-18T11:10:38.631Z,14.13
2022-12-18T11:13:21.113Z,13.88
2022-12-18T11:15:48.273Z,13.82
2022-12-18T11:18:38.352Z,14.35
2022-12-18T11:21:11.029Z,14.13
2022-12-18T11:23:44.825Z,14.63
2022-12-18T11:26:11.502Z,15.25
2022-12-18T11:28:42.285Z,14.82
2022-12-18T11:31:16.193Z,15.00
2022-12-18T11:34:12.011Z,14.23
2022-12-18T11:36:45.938Z,15.23
2022-12-18T11:39:42.112Z,14.20
2022-12-18T11:42:13.360Z,14.40
2022-12-18T11:44:43.570Z,16.45
2022-12-18T11:47:22.970Z,13.38
2022-12-18T11:49:51.204Z,14.18
2022-12-18T11:52:25.315Z,14.00
2022-12-18T11:54:53.839Z,15.60
2022-12-18T11:57:23.425Z,14.15
2022-12-18T12:00:12.149Z,13.88
2022-12-18T12:08:00.577Z,14.55
2022-12-18T12:10:44.422Z,13.77
2022-12-18T12:13:20.122Z,14.40
2022-12-18T12:16:10.978Z,12.88
2022-12-18T12:18:46.933Z,14.43
2022-12-18T12:21:28.712Z,14.82
2022-12-18T12:24:16.535Z,13.07
2022-12-18T12:27:19.945Z,17.25
2022-12-18T12:30:05.646Z,14.40
2022-12-18T12:33:05.444Z,13.65
2022-12-18T12:35:56.303Z,14.88
2022-12-18T12:38:29.550Z,13.80
2022-12-18T12:41:03.414Z,13.73
2022-12-18T12:43:51.120Z,14.27
2022-12-18T12:46:22.240Z,13.70
2022-12-18T12:48:57.618Z,12.98
2022-12-18T12:51:40.258Z,14.68
2022-12-18T12:54:17.013Z,14.82
2022-12-18T12:57:05.939Z,14.27
2022-12-18T12:59:43.075Z,13.77
2022-12-18T13:02:43.575Z,14.05
2022-12-18T13:05:39.633Z,15.00
2022-12-18T13:08:12.274Z,13.75
2022-12-18T13:10:43.468Z,14.85
2022-12-18T13:13:13.080Z,15.50
2022-12-18T13:15:50.334Z,15.30
2022-12-18T13:18:21.364Z,14.68
2022-12-18T13:20:59.920Z,14.32
2022-12-18T13:23:35.960Z,15.07
2022-12-18T13:26:11.194Z,15.50
2022-12-18T13:28:47.359Z,16.10
2022-12-18T13:31:15.967Z,16.33
2022-12-18T13:36:35.151Z,16.42
2022-12-18T13:39:19.776Z,15.35
2022-12-18T13:41:52.441Z,16.83
2022-12-18T13:44:41.558Z,15.88
2022-12-18T13:47:33.447Z,15.27
2022-12-18T13:50:01.054Z,16.00
2022-12-18T13:52:34.371Z,15.73
2022-12-18T13:55:06.114Z,15.63
2022-12-18T13:57:35.929Z,14.60
2022-12-18T14:00:25.697Z,15.90
2022-12-18T14:02:53.377Z,16.38
2022-12-18T14:05:40.361Z,15.35
2022-12-18T14:08:15.969Z,16.55
2022-12-18T14:10:49.137Z,16.60
2022-12-18T14:13:29.089Z,16.10
2022-12-18T14:15:57.354Z,15.55
2022-12-18T14:18:31.134Z,16.35
2022-12-18T14:21:03.358Z,17.13
2022-12-18T14:23:30.048Z,17.45
2022-12-18T14:26:00.781Z,14.82
2022-12-18T14:28:30.640Z,16.52
2022-12-18T14:30:57.567Z,17.55
2022-12-18T14:33:29.498Z,16.70
2022-12-18T14:36:03.637Z,15.75
2022-12-18T14:38:31.612Z,17.98
2022-12-18T14:41:12.712Z,16.47
2022-12-18T14:43:41.950Z,17.50
2022-12-18T14:46:30.943Z,16.30
2022-12-18T14:51:27.520Z,17.65
2022-12-18T14:54:03.178Z,17.63
2022-12-18T14:56:36.382Z,18.63
2022-12-18T14:59:23.832Z,18.02
2022-12-18T15:02:00.252Z,17.00
2022-12-18T15:04:36.755Z,18.65
2022-12-18T15:07:06.115Z,17.23
2022-12-18T15:09:33.131Z,17.52
2022-12-18T15:12:01.702Z,17.55
2022-12-18T15:14:38.235Z,18.42
2022-12-18T15:17:20.711Z,17.80
2022-12-18T15:19:49.984Z,16.42
2022-12-18T15:22:27.470Z,17.23
2022-12-18T15:24:55.939Z,17.92
2022-12-18T15:27:24.047Z,17.27
2022-12-18T15:30:09.252Z,19.38
2022-12-18T15:32:38.271Z,17.58
2022-12-18T15:35:14.263Z,17.40
2022-12-18T15:37:41.452Z,16.40
2022-12-18T15:40:17.454Z,18.73
2022-12-18T15:43:03.363Z,17.35
2022-12-18T15:45:30.383Z,17.35
2022-12-18T15:47:57.357Z,17.88
2022-12-18T15:50:24.345Z,18.15
2022-12-18T15:52:53.098Z,18.55
2022-12-18T15:55:41.377Z,18.92
2022-12-18T15:58:10.552Z,17.85
2022-12-18T16:00:39.840Z,17.48
2022-12-18T16:03:07.684Z,20.35
2022-12-18T16:05:34.557Z,18.37
2022-12-18T16:08:01.240Z,18.45
2022-12-18T16:10:28.475Z,19.27
2022-12-18T16:12:55.427Z,17.98
2022-12-18T16:15:24.795Z,18.92
2022-12-18T16:17:52.698Z,18.00
2022-12-18T16:20:22.354Z,19.05
2022-12-18T16:22:50.283Z,18.67
2022-12-18T16:25:24.102Z,19.90
2022-12-18T16:27:51.738Z,18.38
2022-12-18T16:30:21.212Z,18.85
2022-12-18T16:32:47.988Z,19.23
2022-12-18T16:35:16.667Z,19.75
2022-12-18T16:37:43.745Z,21.13
2022-12-18T16:40:13.935Z,22.35
2022-12-18T16:42:42.452Z,21.17
2022-12-18T16:45:11.961Z,19.60
2022-12-18T16:47:39.733Z,22.40
2022-12-18T16:50:07.651Z,20.02
2022-12-18T16:52:35.043Z,21.27
2022-12-18T16:55:01.726Z,20.52
2022-12-18T16:57:28.351Z,22.77
2022-12-18T16:59:57.656Z,22.63
2022-12-18T17:02:28.225Z,19.80
2022-12-18T17:04:56.639Z,19.45
2022-12-18T17:07:24.239Z,20.70
2022-12-18T17:09:51.220Z,20.85
2022-12-18T17:12:18.336Z,21.65
2022-12-18T17:14:45.155Z,22.73
2022-12-18T17:17:22.788Z,25.50
2022-12-18T17:19:50.584Z,24.50
2022-12-18T17:22:17.579Z,24.95
2022-12-18T17:24:44.310Z,23.15
2022-12-18T17:27:11.029Z,21.38
2022-12-18T17:29:41.273Z,21.52
2022-12-18T17:32:10.432Z,21.45
2022-12-18T17:34:37.646Z,27.50
2022-12-18T17:37:04.356Z,22.70
2022-12-18T17:39:31.162Z,21.98
2022-12-18T17:41:59.362Z,21.58
2022-12-18T17:44:26.034Z,22.42
2022-12-18T17:46:52.810Z,27.55
2022-12-18T17:49:21.196Z,22.00
2022-12-18T17:51:47.882Z,22.23
2022-12-18T17:54:14.922Z,20.23
2022-12-18T17:56:41.872Z,22.25
2022-12-18T17:59:08.863Z,22.08
2022-12-18T18:01:42.430Z,22.50
2022-12-18T18:04:11.337Z,20.90
2022-12-18T18:06:39.372Z,22.67
2022-12-18T18:09:08.159Z,32.10
2022-12-18T18:12:05.696Z,21.77
2022-12-18T18:14:33.046Z,27.98
2022-12-18T18:17:04.685Z,27.10
2022-12-18T18:19:33.121Z,45.25
2022-12-18T18:21:59.851Z,27.47
2022-12-18T18:24:27.086Z,46.22
2022-12-18T18:26:59.917Z,47.90
2022-12-18T18:29:29.028Z,22.85
2022-12-18T18:31:56.847Z,31.75
2022-12-18T18:34:26.648Z,23.25
2022-12-18T18:36:53.287Z,24.10
2022-12-18T18:39:20.385Z,22.55
2022-12-18T18:41:48.683Z,24.15
2022-12-18T18:44:17.775Z,35.13
2022-12-18T18:46:44.779Z,23.67
2022-12-18T18:49:11.892Z,23.85
2022-12-18T18:51:38.575Z,24.20
2022-12-18T18:54:05.374Z,23.13
2022-12-18T18:59:19.438Z,23.55
2022-12-18T19:01:49.454Z,25.02
2022-12-18T19:04:16.361Z,24.25
2022-12-18T19:06:46.601Z,24.23
2022-12-18T19:09:13.967Z,23.60
2022-12-18T19:11:59.306Z,24.63
2022-12-18T19:14:26.054Z,22.73
2022-12-18T19:16:52.825Z,23.08
2022-12-18T19:19:23.531Z,25.13
2022-12-18T19:21:50.415Z,26.77
2022-12-18T19:24:17.102Z,22.92
2022-12-18T19:26:43.951Z,68.15
2022-12-18T19:29:11.885Z,25.55
2022-12-18T19:31:38.586Z,30.27
2022-12-18T19:34:06.996Z,27.02
2022-12-18T19:36:36.080Z,30.25
2022-12-18T19:39:14.993Z,23.85
2022-12-18T19:41:43.369Z,26.75
2022-12-18T19:44:13.051Z,26.15
2022-12-18T19:49:10.126Z,26.10
2022-12-18T19:51:36.794Z,26.57
2022-12-18T19:54:03.575Z,26.55
2022-12-18T19:56:32.874Z,25.63
2022-12-18T19:59:00.299Z,32.03
2022-12-18T20:01:28.988Z,29.45
2022-12-18T20:06:33.904Z,25.13
2022-12-18T20:09:06.009Z,25.77
2022-12-18T20:11:34.691Z,27.17
2022-12-18T20:14:09.279Z,27.08
2022-12-18T20:16:36.084Z,28.27
2022-12-18T20:19:04.031Z,27.85
2022-12-18T20:21:31.086Z,27.23
2022-12-18T20:23:59.858Z,26.70
2022-12-18T20:28:54.567Z,31.10
2022-12-18T20:31:22.312Z,33.63
2022-12-18T20:33:50.983Z,27.83
2022-12-18T20:38:50.116Z,32.10
2022-12-18T20:41:20.091Z,37.58
2022-12-18T20:43:47.651Z,28.83
2022-12-18T20:46:16.065Z,31.98
2022-12-18T20:48:43.512Z,28.50
2022-12-18T20:51:14.538Z,28.17
2022-12-18T20:53:42.139Z,27.80
2022-12-18T20:56:12.333Z,26.83
2022-12-18T20:58:39.070Z,33.55
2022-12-18T21:01:13.060Z,26.85
2022-12-18T21:03:41.541Z,27.05
2022-12-18T21:06:10.275Z,28.83
2022-12-18T21:08:38.315Z,28.42
2022-12-18T21:11:38.712Z,26.90
2022-12-18T21:14:12.159Z,28.95
2022-12-18T21:16:40.041Z,26.92
2022-12-18T21:19:06.911Z,28.63
2022-12-18T21:21:35.082Z,27.67
2022-12-18T21:24:06.593Z,29.65
2022-12-18T21:26:33.854Z,27.85
2022-12-18T21:29:03.691Z,28.27
2022-12-18T21:31:33.204Z,36.53
2022-12-18T21:34:02.470Z,32.58
2022-12-18T21:36:30.002Z,27.83
2022-12-18T21:38:57.304Z,28.77
2022-12-18T21:41:43.965Z,29.92
2022-12-18T21:44:16.090Z,29.58
2022-12-18T21:46:44.741Z,35.80
2022-12-18T21:49:14.545Z,31.13
2022-12-18T21:51:41.310Z,30.60
2022-12-18T21:54:08.007Z,30.17
2022-12-18T21:57:00.248Z,33.83
2022-12-18T21:59:32.346Z,31.70
2022-12-18T22:02:01.728Z,32.67
2022-12-18T22:04:28.933Z,34.05
2022-12-18T22:06:58.676Z,30.75
2022-12-18T22:11:56.602Z,32.17
2022-12-18T22:14:23.388Z,33.55
2022-12-18T22:16:51.296Z,32.85
2022-12-18T22:19:23.704Z,33.17
2022-12-18T22:21:59.311Z,43.67
2022-12-18T22:24:26.888Z,33.40
2022-12-18T22:27:02.093Z,35.15
2022-12-18T22:29:47.793Z,38.58
2022-12-18T22:32:22.091Z,39.22
2022-12-18T22:35:05.951Z,32.95
2022-12-18T22:37:33.992Z,39.65
2022-12-18T22:40:07.232Z,35.42
2022-12-18T22:42:34.199Z,42.85
2022-12-18T22:45:04.055Z,32.00
2022-12-18T22:47:30.917Z,40.75
2022-12-18T22:49:58.220Z,34.97
2022-12-18T22:52:25.472Z,36.33
2022-12-18T22:54:53.669Z,32.15
2022-12-18T22:57:22.086Z,36.95
2022-12-18T22:59:49.834Z,41.63
2022-12-18T23:02:17.965Z,33.45
2022-12-18T23:04:45.180Z,37.63
2022-12-18T23:07:12.553Z,36.30
2022-12-18T23:09:39.859Z,39.20
2022-12-18T23:12:07.205Z,37.42
2022-12-18T23:14:33.904Z,36.30
2022-12-18T23:17:00.550Z,35.22
2022-12-18T23:19:27.287Z,34.97
2022-12-18T23:21:54.855Z,37.58
2022-12-18T23:24:25.391Z,41.72
2022-12-18T23:26:52.125Z,41.85
2022-12-18T23:29:19.352Z,36.50
2022-12-18T23:31:46.237Z,35.28
2022-12-18T23:34:14.146Z,35.88
2022-12-18T23:36:46.291Z,41.33
2022-12-18T23:39:15.325Z,35.45
2022-12-18T23:42:00.442Z,38.53
2022-12-18T23:44:27.648Z,36.38
2022-12-18T23:46:54.728Z,37.92
2022-12-18T23:49:21.546Z,35.75
2022-12-18T23:51:48.883Z,35.58
2022-12-18T23:54:15.806Z,40.08
2022-12-18T23:56:42.458Z,34.25
2022-12-18T23:59:09.249Z,35.20
